Track Удовиченко Игорь

Time Latitude Longitude Accuracy (66% radius in meters) Altitude (meters) Speed (km/hour) Bearing (degrees) Battery (%) GPS flag
07:11:31 57.205231 60.114998 0 0 0 0 1 delete
07:11:30 57.205240 60.115048 0 0 0 0 1 delete
07:11:29 57.205245 60.115099 0 0 0 0 1 delete
07:11:28 57.205247 60.115148 0 0 0 0 1 delete
07:11:27 57.205251 60.115195 0 0 0 0 1 delete
07:11:26 57.205261 60.115228 0 0 0 0 1 delete
07:11:25 57.205277 60.115245 0 0 0 0 1 delete
07:11:24 57.205296 60.115245 0 0 0 0 1 delete
07:11:23 57.205315 60.115233 0 0 0 0 1 delete
07:11:22 57.205335 60.115214 0 0 0 0 1 delete
07:11:21 57.205354 60.115192 0 0 0 0 1 delete
07:11:20 57.205375 60.115166 0 0 0 0 1 delete
07:11:19 57.205397 60.115142 0 0 0 0 1 delete
07:11:18 57.205422 60.115120 0 0 0 0 1 delete
07:11:17 57.205448 60.115099 0 0 0 0 1 delete
07:11:16 57.205472 60.115082 0 0 0 0 1 delete
07:11:15 57.205494 60.115068 0 0 0 0 1 delete
07:11:14 57.205518 60.115056 0 0 0 0 1 delete
07:11:13 57.205541 60.115047 0 0 0 0 1 delete
07:11:12 57.205563 60.115043 0 0 0 0 1 delete
07:11:11 57.205585 60.115042 0 0 0 0 1 delete
07:11:10 57.205609 60.115041 0 0 0 0 1 delete
07:11:09 57.205630 60.115037 0 0 0 0 1 delete
07:11:08 57.205650 60.115029 0 0 0 0 1 delete
07:11:07 57.205670 60.115017 0 0 0 0 1 delete
07:11:06 57.205692 60.115000 0 0 0 0 1 delete
07:11:05 57.205714 60.114983 0 0 0 0 1 delete
07:11:04 57.205738 60.114968 0 0 0 0 1 delete
07:11:03 57.205768 60.114956 0 0 0 0 1 delete
07:11:02 57.205801 60.114954 0 0 0 0 1 delete
07:11:01 57.205837 60.114968 0 0 0 0 1 delete
07:11:00 57.205872 60.115002 0 0 0 0 1 delete
07:10:59 57.205911 60.115055 0 0 0 0 1 delete
07:10:58 57.205950 60.115113 0 0 0 0 1 delete
07:10:57 57.205986 60.115176 0 0 0 0 1 delete
07:10:56 57.206021 60.115234 0 0 0 0 1 delete
07:10:55 57.206055 60.115288 0 0 0 0 1 delete
07:10:54 57.206091 60.115341 0 0 0 0 1 delete
07:10:53 57.206128 60.115394 0 0 0 0 1 delete
07:10:52 57.206165 60.115445 0 0 0 0 1 delete
07:10:51 57.206201 60.115490 0 0 0 0 1 delete
07:10:50 57.206235 60.115529 0 0 0 0 1 delete
07:10:49 57.206269 60.115568 0 0 0 0 1 delete
07:10:48 57.206301 60.115603 0 0 0 0 1 delete
07:10:47 57.206328 60.115634 0 0 0 0 1 delete
07:10:46 57.206352 60.115656 0 0 0 0 1 delete
07:10:45 57.206373 60.115673 0 0 0 0 1 delete
07:10:44 57.206394 60.115685 0 0 0 0 1 delete
07:10:43 57.206410 60.115693 0 0 0 0 1 delete
07:10:42 57.206425 60.115703 0 0 0 0 1 delete